createdAt,value
2019-02-24T00:01:00.399Z,15.11
2019-02-24T00:06:08.837Z,15.14
2019-02-24T00:11:17.013Z,15.60
2019-02-24T00:16:25.148Z,15.73
2019-02-24T00:21:33.749Z,15.68
2019-02-24T00:26:42.002Z,15.50
2019-02-24T00:31:50.168Z,16.20
2019-02-24T00:36:58.278Z,15.98
2019-02-24T00:42:07.443Z,16.41
2019-02-24T00:47:15.641Z,16.08
2019-02-24T00:52:23.788Z,16.34
2019-02-24T00:57:31.988Z,16.03
2019-02-24T01:02:40.288Z,15.97
2019-02-24T01:07:48.380Z,17.23
2019-02-24T01:12:56.471Z,17.87
2019-02-24T01:18:04.648Z,16.57
2019-02-24T01:23:12.796Z,16.81
2019-02-24T01:28:25.329Z,17.26
2019-02-24T01:33:28.379Z,16.62
2019-02-24T01:38:36.890Z,17.78
2019-02-24T01:43:45.365Z,18.11
2019-02-24T01:48:53.462Z,17.24
2019-02-24T01:54:01.893Z,17.64
2019-02-24T01:59:10.110Z,17.89
2019-02-24T02:04:18.681Z,17.75
2019-02-24T02:09:26.879Z,17.37
2019-02-24T02:14:35.078Z,18.03
2019-02-24T02:19:43.514Z,18.46
2019-02-24T02:24:51.768Z,18.99
2019-02-24T02:30:00.105Z,19.00
2019-02-24T02:35:08.309Z,18.53
2019-02-24T02:40:16.316Z,19.23
2019-02-24T02:45:24.503Z,19.11
2019-02-24T02:50:32.746Z,18.60
2019-02-24T02:55:41.017Z,18.22
2019-02-24T03:00:49.166Z,19.40
2019-02-24T03:05:57.865Z,19.55
2019-02-24T03:11:06.214Z,18.48
2019-02-24T03:16:14.474Z,18.06
2019-02-24T03:21:22.540Z,19.81
2019-02-24T03:26:31.257Z,19.00
2019-02-24T03:31:39.393Z,19.74
2019-02-24T03:36:47.611Z,19.61
2019-02-24T03:41:56.356Z,19.71
2019-02-24T03:47:04.607Z,19.86
2019-02-24T03:52:12.818Z,19.00
2019-02-24T03:57:21.094Z,19.34
2019-02-24T04:02:29.127Z,19.21
2019-02-24T04:07:37.380Z,19.30
2019-02-24T04:12:45.967Z,19.70
2019-02-24T04:17:54.046Z,19.83
2019-02-24T04:23:02.254Z,20.29
2019-02-24T04:28:10.454Z,19.83
2019-02-24T04:33:18.649Z,20.03
2019-02-24T04:38:27.151Z,22.08
2019-02-24T04:43:35.259Z,22.06
2019-02-24T04:48:43.488Z,21.88
2019-02-24T04:53:51.688Z,20.61
2019-02-24T04:58:59.897Z,20.57
2019-02-24T05:04:08.218Z,21.63
2019-02-24T05:09:16.463Z,21.75
2019-02-24T05:14:24.580Z,22.21
2019-02-24T05:19:32.813Z,22.07
2019-02-24T05:24:40.966Z,22.44
2019-02-24T05:29:49.101Z,21.78
2019-02-24T05:34:57.377Z,21.19
2019-02-24T05:40:05.579Z,21.85
2019-02-24T05:45:13.648Z,21.75
2019-02-24T05:50:21.958Z,22.07
2019-02-24T05:55:30.174Z,22.22
2019-02-24T06:00:38.369Z,22.42
2019-02-24T06:05:47.172Z,22.36
2019-02-24T06:10:57.678Z,23.56
2019-02-24T06:15:55.955Z,23.39
2019-02-24T06:21:04.124Z,22.68
2019-02-24T06:26:12.305Z,23.64
2019-02-24T06:31:20.697Z,23.46
2019-02-24T06:36:29.158Z,23.72
2019-02-24T06:41:37.209Z,22.78
2019-02-24T06:46:45.324Z,22.46
2019-02-24T06:51:53.442Z,22.51
2019-02-24T06:57:01.690Z,22.55
2019-02-24T07:02:09.784Z,22.66
2019-02-24T07:07:18.106Z,22.98
2019-02-24T07:12:26.213Z,22.25
2019-02-24T07:17:34.254Z,22.17
2019-02-24T07:22:42.344Z,22.22
2019-02-24T07:27:50.333Z,22.03
2019-02-24T07:32:58.656Z,23.69
2019-02-24T07:38:06.952Z,21.96
2019-02-24T07:43:16.197Z,22.42
2019-02-24T07:48:24.723Z,23.63
2019-02-24T07:53:32.852Z,21.78
2019-02-24T07:58:41.076Z,21.42
2019-02-24T08:03:49.809Z,19.97
2019-02-24T08:08:57.831Z,21.52
2019-02-24T08:14:06.376Z,20.63
2019-02-24T08:19:14.372Z,20.11
2019-02-24T08:24:22.361Z,20.34
2019-02-24T08:29:30.350Z,19.20
2019-02-24T08:34:38.493Z,19.08
2019-02-24T08:39:46.557Z,19.88
2019-02-24T08:44:54.561Z,19.52
2019-02-24T08:50:02.786Z,19.83
2019-02-24T08:55:10.837Z,19.16
2019-02-24T09:00:19.006Z,19.57
2019-02-24T09:05:27.196Z,19.37
2019-02-24T09:10:35.393Z,19.12
2019-02-24T09:15:43.634Z,18.08
2019-02-24T09:20:51.919Z,18.42
2019-02-24T09:26:00.190Z,18.87
2019-02-24T09:31:08.393Z,18.99
2019-02-24T09:36:16.542Z,17.66
2019-02-24T09:41:24.638Z,19.27
2019-02-24T09:46:32.863Z,17.83
2019-02-24T09:51:41.049Z,18.54
2019-02-24T09:56:49.213Z,17.65
2019-02-24T10:01:57.409Z,17.95
2019-02-24T10:07:05.605Z,19.41
2019-02-24T10:12:13.612Z,20.54
2019-02-24T10:17:22.023Z,19.01
2019-02-24T10:22:30.148Z,19.66
2019-02-24T10:27:38.390Z,18.37
2019-02-24T10:32:46.569Z,18.40
2019-02-24T10:37:54.842Z,18.43
2019-02-24T10:43:04.090Z,18.55
2019-02-24T10:48:14.114Z,18.99
2019-02-24T10:53:19.754Z,18.27
2019-02-24T10:58:34.483Z,18.96
2019-02-24T11:03:36.549Z,19.70
2019-02-24T11:08:44.593Z,18.67
2019-02-24T11:13:52.957Z,19.55
2019-02-24T11:19:01.122Z,19.01
2019-02-24T11:24:09.272Z,18.89
2019-02-24T11:29:17.321Z,18.47
2019-02-24T11:34:25.451Z,18.83
2019-02-24T11:39:33.589Z,18.74
2019-02-24T11:44:41.713Z,17.97
2019-02-24T11:49:49.679Z,19.09
2019-02-24T11:54:57.727Z,18.66
2019-02-24T11:59:57.873Z,18.35
2019-02-24T12:05:06.172Z,18.53
2019-02-24T12:10:14.314Z,18.50
2019-02-24T12:15:22.441Z,18.73
2019-02-24T12:20:30.581Z,19.35
2019-02-24T12:25:38.626Z,19.53
2019-02-24T12:30:46.785Z,19.10
2019-02-24T12:35:55.685Z,17.30
2019-02-24T12:41:05.328Z,18.07
2019-02-24T12:46:13.822Z,17.15
2019-02-24T12:51:22.510Z,16.66
2019-02-24T12:56:31.769Z,16.61
2019-02-24T13:01:40.019Z,15.55
2019-02-24T13:06:48.118Z,14.53
2019-02-24T13:11:56.373Z,14.59
2019-02-24T13:17:04.678Z,14.10
2019-02-24T13:22:13.013Z,14.27
2019-02-24T13:27:21.211Z,13.56
2019-02-24T13:32:29.316Z,14.16
2019-02-24T13:37:37.441Z,14.58
2019-02-24T13:42:45.518Z,15.02
2019-02-24T13:47:53.930Z,16.57
2019-02-24T13:53:02.188Z,18.07
2019-02-24T13:58:10.573Z,16.58
2019-02-24T14:03:19.530Z,16.28
2019-02-24T14:08:27.787Z,16.83
2019-02-24T14:13:35.578Z,16.85
2019-02-24T14:18:43.913Z,15.92
2019-02-24T14:23:52.749Z,16.06
2019-02-24T14:29:01.006Z,17.71
2019-02-24T14:34:09.711Z,16.56
2019-02-24T14:39:17.806Z,17.72
2019-02-24T14:44:25.916Z,16.57
2019-02-24T14:49:34.553Z,16.77
2019-02-24T14:54:42.783Z,17.02
2019-02-24T14:59:50.888Z,16.37
2019-02-24T15:04:59.073Z,17.00
2019-02-24T15:10:09.181Z,17.90
2019-02-24T15:15:15.639Z,19.98
2019-02-24T15:20:23.910Z,15.91
2019-02-24T15:25:32.088Z,15.21
2019-02-24T15:30:40.450Z,15.27
2019-02-24T15:35:49.517Z,15.66
2019-02-24T15:40:57.620Z,15.90
2019-02-24T15:46:05.941Z,14.66
2019-02-24T15:51:14.208Z,14.96
2019-02-24T15:56:23.316Z,15.47
2019-02-24T16:01:32.339Z,15.89
2019-02-24T16:06:40.902Z,14.94
2019-02-24T16:11:49.164Z,17.39
2019-02-24T16:16:57.729Z,18.90
2019-02-24T16:22:06.142Z,18.36
2019-02-24T16:27:14.668Z,17.58
2019-02-24T16:32:22.993Z,15.20
2019-02-24T16:37:30.953Z,14.38
2019-02-24T16:42:39.108Z,14.58
2019-02-24T16:47:47.155Z,15.45
2019-02-24T16:52:55.369Z,16.39
2019-02-24T16:58:07.081Z,15.36
2019-02-24T17:03:05.271Z,17.62
2019-02-24T17:08:13.462Z,24.48
2019-02-24T17:13:21.613Z,21.81
2019-02-24T17:18:29.810Z,21.81
2019-02-24T17:23:38.145Z,23.05
2019-02-24T17:28:46.461Z,21.13
2019-02-24T17:33:54.714Z,21.33
2019-02-24T17:39:03.073Z,20.03
2019-02-24T17:44:11.249Z,20.94
2019-02-24T17:49:19.453Z,22.71
2019-02-24T17:54:27.538Z,20.53
2019-02-24T17:59:40.512Z,21.67
2019-02-24T18:04:43.360Z,22.23
2019-02-24T18:09:51.639Z,23.25
2019-02-24T18:14:59.788Z,25.56
2019-02-24T18:20:08.067Z,24.71
2019-02-24T18:25:16.353Z,25.00
2019-02-24T18:30:24.657Z,25.78
2019-02-24T18:35:32.775Z,26.15
2019-02-24T18:40:40.994Z,25.57
2019-02-24T18:45:49.162Z,25.83
2019-02-24T18:50:57.493Z,29.09
2019-02-24T18:56:05.803Z,29.26
2019-02-24T19:01:15.372Z,29.45
2019-02-24T19:06:23.783Z,30.49
2019-02-24T19:11:32.047Z,30.12
2019-02-24T19:16:40.982Z,30.16
2019-02-24T19:21:49.127Z,30.60
2019-02-24T19:26:57.365Z,30.93
2019-02-24T19:32:05.601Z,33.34
2019-02-24T19:37:13.713Z,32.01
2019-02-24T19:42:21.693Z,32.43
2019-02-24T19:47:29.669Z,31.69
2019-02-24T19:52:37.886Z,31.81
2019-02-24T19:57:46.076Z,33.34
2019-02-24T20:02:54.454Z,31.62
2019-02-24T20:08:02.654Z,34.41
2019-02-24T20:13:10.961Z,29.13
2019-02-24T20:18:19.005Z,26.72
2019-02-24T20:23:27.329Z,25.41
2019-02-24T20:28:35.593Z,26.84
2019-02-24T20:33:43.739Z,24.79
2019-02-24T20:38:51.890Z,24.85
2019-02-24T20:44:00.213Z,23.70
2019-02-24T20:49:08.387Z,24.53
2019-02-24T20:54:16.544Z,24.42
2019-02-24T20:59:24.682Z,25.39
2019-02-24T21:04:32.745Z,25.33
2019-02-24T21:09:40.875Z,26.00
2019-02-24T21:14:49.122Z,27.29
2019-02-24T21:19:57.310Z,25.68
2019-02-24T21:25:05.370Z,24.73
2019-02-24T21:30:13.555Z,25.13
2019-02-24T21:35:21.991Z,25.18
2019-02-24T21:40:30.077Z,24.07
2019-02-24T21:45:38.235Z,23.49
2019-02-24T21:50:46.474Z,23.15
2019-02-24T21:55:54.875Z,24.80
2019-02-24T22:01:03.289Z,23.52
2019-02-24T22:06:11.752Z,27.11
2019-02-24T22:11:20.068Z,25.66
2019-02-24T22:16:28.213Z,24.42
2019-02-24T22:21:36.297Z,25.87
2019-02-24T22:26:44.533Z,25.79
2019-02-24T22:31:53.210Z,25.26
2019-02-24T22:37:01.338Z,24.32
2019-02-24T22:42:09.475Z,23.95
2019-02-24T22:47:17.544Z,23.41
2019-02-24T22:52:25.665Z,25.09
2019-02-24T22:57:33.834Z,24.49
2019-02-24T23:02:42.077Z,22.78
2019-02-24T23:07:50.401Z,24.04
2019-02-24T23:12:58.677Z,23.16
2019-02-24T23:18:06.962Z,22.60
2019-02-24T23:23:15.107Z,21.62
2019-02-24T23:28:23.391Z,20.71
2019-02-24T23:33:31.589Z,21.70
2019-02-24T23:38:39.909Z,22.21
2019-02-24T23:43:48.160Z,21.67
2019-02-24T23:48:56.413Z,22.47
2019-02-24T23:54:04.471Z,23.28
2019-02-24T23:59:12.662Z,22.90
